createdAt,value
2016-04-28T00:00:19.181Z,53.65
2016-04-28T00:01:19.200Z,54.5
2016-04-28T00:02:19.233Z,54.98
2016-04-28T00:03:19.220Z,55.38
2016-04-28T00:04:19.224Z,55.1
2016-04-28T00:05:19.242Z,54.72
2016-04-28T00:06:19.244Z,54.6
2016-04-28T00:07:19.246Z,54.88
2016-04-28T00:08:19.281Z,55.74
2016-04-28T00:09:19.283Z,56.43
2016-04-28T00:10:19.285Z,56.3
2016-04-28T00:11:19.132Z,55.45
2016-04-28T00:12:19.307Z,55.07
2016-04-28T00:13:19.326Z,55.45
2016-04-28T00:14:19.329Z,55.48
2016-04-28T00:15:19.331Z,56.3
2016-04-28T00:16:19.348Z,56.68
2016-04-28T00:17:19.352Z,56.21
2016-04-28T00:18:19.370Z,56.59
2016-04-28T00:19:19.373Z,56.68
2016-04-28T00:20:19.375Z,56.4
2016-04-28T00:21:19.394Z,56.68
2016-04-28T00:22:19.428Z,56.3
2016-04-28T00:23:19.415Z,55.45
2016-04-28T00:24:19.417Z,56.59
2016-04-28T00:25:19.436Z,56.97
2016-04-28T00:26:20.783Z,57.82
2016-04-28T00:27:19.442Z,56.87
2016-04-28T00:28:19.459Z,56.3
2016-04-28T00:29:19.461Z,56.78
2016-04-28T00:30:19.497Z,56.97
2016-04-28T00:31:19.483Z,57.06
2016-04-28T00:32:19.502Z,58.01
2016-04-28T00:33:19.504Z,58.11
2016-04-28T00:34:19.507Z,57.73
2016-04-28T00:35:19.525Z,57.92
2016-04-28T00:36:19.527Z,57.92
2016-04-28T00:37:19.546Z,56.78
2016-04-28T00:38:19.549Z,56.97
2016-04-28T00:39:19.568Z,56.78
2016-04-28T00:40:19.570Z,56.68
2016-04-28T00:41:19.588Z,57.25
2016-04-28T00:42:19.590Z,57.64
2016-04-28T00:43:19.594Z,57.54
2016-04-28T00:44:19.612Z,58.01
2016-04-28T00:45:19.615Z,58.29
2016-04-28T00:46:19.617Z,59.15
2016-04-28T00:47:19.635Z,59.81
2016-04-28T00:48:19.638Z,59.05
2016-04-28T00:49:19.672Z,59.03
2016-04-28T00:50:19.659Z,59.81
2016-04-28T00:51:19.662Z,59.15
2016-04-28T00:52:19.696Z,59.22
2016-04-28T00:53:19.683Z,59.22
2016-04-28T00:54:19.717Z,58.84
2016-04-28T00:55:19.720Z,59.05
2016-04-28T00:56:19.581Z,59.22
2016-04-28T00:57:19.725Z,59.31
2016-04-28T00:58:19.744Z,59.5
2016-04-28T00:59:19.746Z,59.12
2016-04-28T01:00:19.749Z,59.69
2016-04-28T01:01:19.767Z,59.59
2016-04-28T01:02:19.769Z,60.16
2016-04-28T01:03:19.788Z,59.88
2016-04-28T01:04:19.791Z,59.88
2016-04-28T01:05:19.809Z,60.25
2016-04-28T01:06:19.811Z,59.88
2016-04-28T01:07:19.814Z,59.97
2016-04-28T01:08:19.832Z,61.4
2016-04-28T01:09:19.835Z,60.35
2016-04-28T01:10:19.854Z,60.35
2016-04-28T01:11:21.278Z,60.73
2016-04-28T01:12:19.859Z,60.25
2016-04-28T01:13:19.862Z,60.92
2016-04-28T01:14:19.896Z,59.97
2016-04-28T01:15:19.898Z,60.16
2016-04-28T01:16:19.901Z,60.16
2016-04-28T01:17:19.920Z,59.97
2016-04-28T01:18:19.923Z,59.97
2016-04-28T01:19:19.925Z,60.16
2016-04-28T01:20:19.928Z,59.78
2016-04-28T01:21:19.945Z,59.97
2016-04-28T01:22:19.948Z,59.78
2016-04-28T01:23:19.967Z,59.78
2016-04-28T01:24:19.984Z,59.78
2016-04-28T01:25:19.972Z,60.25
2016-04-28T01:26:19.897Z,59.78
2016-04-28T01:27:19.993Z,59.5
2016-04-28T01:28:20.011Z,59.12
2016-04-28T01:29:20.030Z,59.69
2016-04-28T01:30:20.017Z,58.93
2016-04-28T01:31:20.051Z,59.78
2016-04-28T01:32:20.038Z,60.35
2016-04-28T01:33:20.055Z,60.06
2016-04-28T01:34:20.058Z,60.35
2016-04-28T01:35:20.061Z,59.97
2016-04-28T01:36:20.080Z,59.78
2016-04-28T01:37:20.098Z,59.78
2016-04-28T01:38:20.086Z,60.83
2016-04-28T01:39:20.088Z,60.35
2016-04-28T01:40:20.107Z,60.16
2016-04-28T01:41:20.234Z,60.32
2016-04-28T01:42:20.127Z,60.51
2016-04-28T01:43:20.130Z,59.94
2016-04-28T01:44:20.149Z,60.13
2016-04-28T01:45:20.166Z,59.75
2016-04-28T01:46:20.168Z,60.13
2016-04-28T01:47:20.172Z,60.13
2016-04-28T01:48:20.174Z,59.94
2016-04-28T01:49:20.193Z,60.51
2016-04-28T01:50:20.195Z,61.08
2016-04-28T01:51:20.215Z,60.7
2016-04-28T01:52:20.217Z,60.8
2016-04-28T01:53:20.219Z,59.94
2016-04-28T01:54:20.238Z,59.94
2016-04-28T01:55:20.240Z,60.22
2016-04-28T01:56:22.431Z,60.13
2016-04-28T01:57:20.261Z,61.18
2016-04-28T01:58:20.280Z,60.32
2016-04-28T01:59:20.282Z,60.22
2016-04-28T02:00:20.301Z,61.08
2016-04-28T02:01:20.288Z,61.08
2016-04-28T02:02:20.290Z,60.7
2016-04-28T02:03:20.309Z,60.22
2016-04-28T02:04:20.311Z,60.13
2016-04-28T02:05:20.345Z,60.51
2016-04-28T02:06:20.347Z,60.13
2016-04-28T02:07:20.335Z,60.22
2016-04-28T02:08:20.353Z,60.89
2016-04-28T02:09:20.356Z,60.89
2016-04-28T02:10:20.358Z,61.55
2016-04-28T02:11:20.252Z,61.36
2016-04-28T02:12:20.380Z,61.65
2016-04-28T02:13:20.398Z,62.12
2016-04-28T02:14:20.401Z,61.65
2016-04-28T02:15:20.403Z,61.93
2016-04-28T02:16:20.422Z,61.83
2016-04-28T02:17:20.424Z,61.21
2016-04-28T02:18:20.443Z,61.49
2016-04-28T02:19:20.446Z,61.65
2016-04-28T02:20:20.448Z,61.87
2016-04-28T02:21:20.467Z,61.21
2016-04-28T02:22:20.484Z,61.49
2016-04-28T02:23:20.477Z,61.68
2016-04-28T02:24:20.480Z,61.77
2016-04-28T02:25:20.499Z,61.87
2016-04-28T02:26:20.548Z,61.58
2016-04-28T02:27:20.379Z,60.92
2016-04-28T02:28:20.537Z,61.3
2016-04-28T02:29:20.526Z,61.21
2016-04-28T02:30:20.543Z,61.21
2016-04-28T02:31:20.546Z,61.21
2016-04-28T02:32:20.564Z,60.16
2016-04-28T02:33:20.567Z,59.12
2016-04-28T02:34:20.601Z,59.12
2016-04-28T02:35:20.603Z,59.12
2016-04-28T02:36:20.607Z,59.41
2016-04-28T02:37:20.609Z,59.5
2016-04-28T02:38:20.612Z,60.03
2016-04-28T02:39:20.614Z,59.88
2016-04-28T02:40:20.632Z,59.75
2016-04-28T02:41:20.636Z,60.22
2016-04-28T02:42:20.654Z,60.51
2016-04-28T02:43:20.656Z,60.8
2016-04-28T02:44:20.658Z,60.13
2016-04-28T02:45:20.678Z,60.13
2016-04-28T02:46:20.696Z,60.7
2016-04-28T02:47:20.683Z,60.7
2016-04-28T02:48:20.701Z,61.08
2016-04-28T02:49:20.705Z,61.65
2016-04-28T02:50:20.707Z,61.36
2016-04-28T02:51:20.724Z,61.08
2016-04-28T02:52:20.727Z,61.36
2016-04-28T02:53:20.745Z,60.89
2016-04-28T02:54:20.749Z,60.7
2016-04-28T02:55:20.751Z,60.89
2016-04-28T02:56:20.629Z,60.8
2016-04-28T02:57:21.632Z,60.7
2016-04-28T02:58:20.775Z,60.41
2016-04-28T02:59:20.793Z,60.99
2016-04-28T03:00:20.795Z,61.74
2016-04-28T03:01:20.830Z,61.55
2016-04-28T03:02:20.832Z,61.83
2016-04-28T03:03:20.835Z,61.74
2016-04-28T03:04:20.837Z,61.93
2016-04-28T03:05:20.840Z,62.21
2016-04-28T03:06:20.859Z,61.93
2016-04-28T03:07:20.861Z,62.02
2016-04-28T03:08:20.880Z,62.02
2016-04-28T03:09:20.867Z,62.5
2016-04-28T03:10:20.886Z,62.78
2016-04-28T03:11:21.075Z,62.78
2016-04-28T03:12:21.438Z,62.4
2016-04-28T03:13:20.909Z,62.31
2016-04-28T03:14:20.927Z,62.4
2016-04-28T03:15:20.946Z,62.31
2016-04-28T03:16:20.933Z,62.12
2016-04-28T03:17:20.951Z,62.21
2016-04-28T03:18:20.954Z,62.02
2016-04-28T03:19:20.957Z,62.12
2016-04-28T03:20:20.974Z,62.12
2016-04-28T03:21:20.977Z,62.4
2016-04-28T03:22:21.027Z,62.02
2016-04-28T03:23:20.999Z,62.12
2016-04-28T03:24:21.001Z,62.4
2016-04-28T03:25:21.004Z,61.93
2016-04-28T03:26:21.647Z,62.02
2016-04-28T03:27:21.024Z,62.21
2016-04-28T03:28:21.043Z,62.21
2016-04-28T03:29:21.076Z,61.83
2016-04-28T03:30:21.065Z,62.12
2016-04-28T03:31:21.051Z,62.02
2016-04-28T03:32:21.054Z,61.74
2016-04-28T03:33:21.072Z,62.12
2016-04-28T03:34:21.075Z,62.78
2016-04-28T03:35:21.093Z,62.02
2016-04-28T03:36:21.095Z,62.78
2016-04-28T03:37:21.114Z,62.97
2016-04-28T03:38:21.117Z,62.31
2016-04-28T03:39:21.120Z,63.07
2016-04-28T03:40:21.138Z,62.69
2016-04-28T03:41:21.140Z,62.69
2016-04-28T03:42:21.690Z,62.88
2016-04-28T03:43:21.161Z,62.85
2016-04-28T03:44:21.164Z,63.51
2016-04-28T03:45:21.166Z,63.64
2016-04-28T03:46:21.186Z,62.56
2016-04-28T03:47:21.188Z,62.88
2016-04-28T03:48:21.190Z,63.16
2016-04-28T03:49:21.209Z,62.31
2016-04-28T03:50:21.211Z,62.5
2016-04-28T03:51:21.230Z,62.59
2016-04-28T03:52:21.248Z,62.59
2016-04-28T03:53:21.251Z,62.69
2016-04-28T03:54:21.238Z,62.69
2016-04-28T03:55:21.256Z,62.59
2016-04-28T03:56:21.602Z,63.26
2016-04-28T03:57:23.355Z,63.64
2016-04-28T03:58:21.296Z,63.73
2016-04-28T03:59:21.298Z,63.54
2016-04-28T04:00:21.301Z,63.16
2016-04-28T04:01:21.304Z,63.54
2016-04-28T04:02:21.307Z,63.16
2016-04-28T04:03:21.340Z,63.64
2016-04-28T04:04:21.359Z,63.26
2016-04-28T04:05:21.331Z,62.97
2016-04-28T04:06:21.348Z,63.16
2016-04-28T04:07:21.351Z,63.07
2016-04-28T04:08:35.466Z,62.02
2016-04-28T04:09:21.372Z,61.93
2016-04-28T04:10:21.390Z,62.21
2016-04-28T04:11:21.440Z,62.59
2016-04-28T04:12:21.395Z,62.69
2016-04-28T04:13:21.398Z,62.69
2016-04-28T04:14:21.417Z,62.59
2016-04-28T04:15:21.419Z,62.69
2016-04-28T04:16:21.422Z,62.69
2016-04-28T04:17:21.456Z,62.78
2016-04-28T04:18:21.444Z,62.02
2016-04-28T04:19:21.461Z,62.21
2016-04-28T04:20:21.463Z,61.83
2016-04-28T04:21:21.467Z,61.65
2016-04-28T04:22:21.485Z,62.12
2016-04-28T04:23:21.488Z,62.21
2016-04-28T04:24:21.490Z,61.93
2016-04-28T04:25:21.510Z,62.21
2016-04-28T04:26:21.621Z,62.02
2016-04-28T04:27:21.811Z,62.12
2016-04-28T04:28:21.532Z,62.31
2016-04-28T04:29:21.535Z,62.21
2016-04-28T04:30:21.538Z,62.12
2016-04-28T04:31:21.556Z,61.55
2016-04-28T04:32:21.574Z,61.27
2016-04-28T04:33:21.577Z,61.36
2016-04-28T04:34:21.579Z,61.96
2016-04-28T04:35:21.582Z,61.65
2016-04-28T04:36:21.600Z,61.49
2016-04-28T04:37:21.604Z,61.11
2016-04-28T04:38:21.606Z,61.08
2016-04-28T04:39:21.625Z,61.68
2016-04-28T04:40:21.628Z,60.73
2016-04-28T04:41:21.505Z,61.11
2016-04-28T04:42:22.398Z,61.02
2016-04-28T04:43:21.650Z,60.83
2016-04-28T04:44:21.669Z,61.02
2016-04-28T04:45:21.672Z,61.49
2016-04-28T04:46:21.691Z,61.21
2016-04-28T04:47:21.693Z,60.83
2016-04-28T04:48:21.696Z,61.11
2016-04-28T04:49:21.730Z,60.92
2016-04-28T04:50:21.716Z,60.92
2016-04-28T04:51:21.719Z,60.54
2016-04-28T04:52:21.738Z,59.5
2016-04-28T04:53:21.756Z,60.06
2016-04-28T04:54:21.758Z,60.16
2016-04-28T04:55:21.761Z,60.06
2016-04-28T04:56:22.046Z,60.06
2016-04-28T04:57:21.641Z,60.06
2016-04-28T04:58:21.785Z,59.97
2016-04-28T04:59:21.803Z,60.25
2016-04-28T05:00:21.807Z,58.84
2016-04-28T05:01:21.824Z,59.69
2016-04-28T05:02:21.812Z,59.12
2016-04-28T05:03:21.829Z,58.17
2016-04-28T05:04:21.832Z,58.07
2016-04-28T05:05:21.851Z,58.07
2016-04-28T05:06:21.869Z,58.36
2016-04-28T05:07:21.872Z,57.98
2016-04-28T05:08:21.890Z,57.79
2016-04-28T05:09:21.878Z,58.74
2016-04-28T05:10:21.895Z,58.74
2016-04-28T05:11:22.350Z,58.74
2016-04-28T05:12:21.760Z,58.11
2016-04-28T05:13:21.935Z,58.39
2016-04-28T05:14:21.937Z,58.48
2016-04-28T05:15:21.939Z,57.92
2016-04-28T05:16:21.943Z,57.79
2016-04-28T05:17:21.961Z,57.98
2016-04-28T05:18:21.964Z,58.58
2016-04-28T05:19:21.966Z,58.67
2016-04-28T05:20:22.001Z,57.82
2016-04-28T05:21:21.987Z,57.92
2016-04-28T05:22:22.006Z,58.2
2016-04-28T05:23:22.024Z,58.77
2016-04-28T05:24:22.026Z,58.58
2016-04-28T05:25:22.029Z,58.48
2016-04-28T05:26:24.189Z,57.25
2016-04-28T05:27:22.066Z,57.54
2016-04-28T05:28:22.068Z,57.82
2016-04-28T05:29:22.072Z,57.54
2016-04-28T05:30:22.074Z,56.78
2016-04-28T05:31:22.093Z,57.06
2016-04-28T05:32:22.095Z,56.59
2016-04-28T05:33:22.114Z,56.87
2016-04-28T05:34:22.131Z,57.16
2016-04-28T05:35:22.151Z,56.78
2016-04-28T05:36:22.137Z,56.97
2016-04-28T05:37:22.155Z,57.35
2016-04-28T05:38:22.142Z,57.35
2016-04-28T05:39:22.162Z,56.02
2016-04-28T05:40:22.179Z,55.57
2016-04-28T05:41:25.306Z,55.36
2016-04-28T05:42:23.247Z,55
2016-04-28T05:43:22.203Z,53.96
2016-04-28T05:44:22.206Z,54.15
2016-04-28T05:45:22.225Z,53.87
2016-04-28T05:46:22.242Z,53.96
2016-04-28T05:47:22.229Z,53.11
2016-04-28T05:48:22.264Z,53.04
2016-04-28T05:49:22.266Z,52.64
2016-04-28T05:50:22.269Z,52.19
2016-04-28T05:51:22.271Z,52.09
2016-04-28T05:52:22.290Z,50.95
2016-04-28T05:53:22.292Z,50.01
2016-04-28T05:54:22.311Z,50.67
2016-04-28T05:55:22.329Z,49.72
2016-04-28T05:56:22.347Z,49.43
2016-04-28T05:57:22.350Z,49.6
2016-04-28T05:58:22.352Z,49.6
2016-04-28T05:59:22.387Z,49.63
2016-04-28T06:00:22.374Z,49.53
2016-04-28T06:01:22.398Z,49.91
2016-04-28T06:02:22.442Z,50.2
2016-04-28T06:03:22.485Z,50.38
2016-04-28T06:04:22.543Z,50.57
2016-04-28T06:05:22.603Z,50.57
2016-04-28T06:06:22.642Z,49.63
2016-04-28T06:07:22.674Z,48.3
2016-04-28T06:08:22.724Z,48.2
2016-04-28T06:09:22.726Z,48.3
2016-04-28T06:10:22.742Z,48.86
2016-04-28T06:11:22.822Z,50.2
2016-04-28T06:12:22.938Z,50.01
2016-04-28T06:13:22.790Z,49.63
2016-04-28T06:14:22.812Z,49.05
2016-04-28T06:15:22.821Z,47.85
2016-04-28T06:16:22.859Z,47.56
2016-04-28T06:17:22.864Z,47.66
2016-04-28T06:18:22.868Z,48.03
2016-04-28T06:19:22.873Z,47.66
2016-04-28T06:20:22.893Z,47.37
2016-04-28T06:21:22.897Z,47.47
2016-04-28T06:22:22.917Z,48.51
2016-04-28T06:23:22.935Z,48.99
2016-04-28T06:24:22.938Z,48.13
2016-04-28T06:25:22.958Z,48.32
2016-04-28T06:26:24.634Z,48.99
2016-04-28T06:27:22.995Z,49.39
2016-04-28T06:28:22.984Z,49.1
2016-04-28T06:29:23.017Z,47.97
2016-04-28T06:30:23.083Z,47.77
2016-04-28T06:31:23.024Z,47.58
2016-04-28T06:32:23.026Z,47.3
2016-04-28T06:33:23.046Z,47.11
2016-04-28T06:34:23.063Z,47.39
2016-04-28T06:35:23.066Z,46.92
2016-04-28T06:36:23.085Z,46.54
2016-04-28T06:37:23.102Z,46.25
2016-04-28T06:38:23.120Z,46
2016-04-28T06:39:23.107Z,45.8
2016-04-28T06:40:23.126Z,45.42
2016-04-28T06:41:23.988Z,43.14
2016-04-28T06:42:23.225Z,43.24
2016-04-28T06:43:23.165Z,44.57
2016-04-28T06:44:23.168Z,46.09
2016-04-28T06:45:23.186Z,44.57
2016-04-28T06:46:23.205Z,44.85
2016-04-28T06:47:23.208Z,43.8
2016-04-28T06:48:23.226Z,42.97
2016-04-28T06:49:23.228Z,44.78
2016-04-28T06:50:23.247Z,44.97
2016-04-28T06:51:23.264Z,43.45
2016-04-28T06:52:23.268Z,44.4
2016-04-28T06:53:23.286Z,45.07
2016-04-28T06:54:23.289Z,44.87
2016-04-28T06:55:23.307Z,44.33
2016-04-28T06:56:23.325Z,44.71
2016-04-28T06:57:23.328Z,43.66
2016-04-28T06:58:23.346Z,43.19
2016-04-28T06:59:23.396Z,43.28
2016-04-28T07:00:23.367Z,42.9
2016-04-28T07:01:23.385Z,43.28
2016-04-28T07:02:23.389Z,41.09
2016-04-28T07:03:23.422Z,41
2016-04-28T07:04:23.424Z,40.35
2016-04-28T07:05:23.444Z,40.26
2016-04-28T07:06:23.462Z,40.81
2016-04-28T07:07:23.464Z,39.87
2016-04-28T07:08:23.467Z,39.12
2016-04-28T07:09:23.485Z,39.12
2016-04-28T07:10:23.503Z,39.59
2016-04-28T07:11:23.538Z,39.5
2016-04-28T07:12:23.525Z,39.59
2016-04-28T07:13:23.543Z,39.5
2016-04-28T07:14:23.546Z,39.21
2016-04-28T07:15:23.564Z,38.07
2016-04-28T07:16:23.582Z,37.12
2016-04-28T07:17:23.584Z,38.35
2016-04-28T07:18:23.603Z,40.26
2016-04-28T07:19:23.622Z,41.21
2016-04-28T07:20:23.655Z,43.3
2016-04-28T07:21:23.674Z,40.09
2016-04-28T07:22:23.661Z,40.85
2016-04-28T07:23:23.681Z,41.99
2016-04-28T07:24:23.684Z,41.13
2016-04-28T07:25:23.701Z,40.28
2016-04-28T07:26:23.720Z,39.61
2016-04-28T07:27:23.582Z,39.9
2016-04-28T07:28:23.740Z,39.61
2016-04-28T07:29:23.758Z,37.8
2016-04-28T07:30:23.777Z,38.95
2016-04-28T07:31:23.780Z,38.68
2016-04-28T07:32:23.814Z,38.68
2016-04-28T07:33:23.833Z,36.87
2016-04-28T07:34:23.867Z,35.52
2016-04-28T07:35:23.884Z,35.44
2016-04-28T07:36:23.856Z,35.52
2016-04-28T07:37:23.874Z,36.87
2016-04-28T07:38:23.892Z,36.85
2016-04-28T07:39:23.894Z,39.25
2016-04-28T07:40:23.913Z,37.73
2016-04-28T07:41:23.932Z,37.82
2016-04-28T07:42:24.310Z,39.15
2016-04-28T07:43:23.968Z,36.68
2016-04-28T07:44:24.018Z,36.39
2016-04-28T07:45:23.990Z,35.35
2016-04-28T07:46:23.993Z,34.58
2016-04-28T07:47:24.011Z,36.49
2016-04-28T07:48:24.029Z,38.68
2016-04-28T07:49:24.031Z,38.79
2016-04-28T07:50:24.049Z,38.41
2016-04-28T07:51:24.068Z,37.84
2016-04-28T07:52:24.086Z,34.98
2016-04-28T07:53:24.089Z,36.03
2016-04-28T07:54:24.107Z,36.62
2016-04-28T07:55:24.188Z,36.33
2016-04-28T07:56:24.145Z,34.9
2016-04-28T07:57:24.163Z,31.85
2016-04-28T07:58:24.165Z,30.71
2016-04-28T07:59:24.184Z,30.8
2016-04-28T08:00:24.201Z,32.14
2016-04-28T08:01:24.220Z,31.87
2016-04-28T08:02:24.223Z,29.48
2016-04-28T08:03:24.241Z,28.91
2016-04-28T08:04:24.306Z,29
2016-04-28T08:05:24.277Z,28.72
2016-04-28T08:06:24.296Z,30.74
2016-04-28T08:07:24.175Z,29.97
2016-04-28T08:08:27.313Z,31.69
2016-04-28T08:09:24.331Z,30.64
2016-04-28T08:10:24.334Z,33.7
2016-04-28T08:11:24.415Z,35.03
2016-04-28T08:12:24.229Z,35.14
2016-04-28T08:13:25.389Z,34.95
2016-04-28T08:14:24.406Z,33.71
2016-04-28T08:15:24.410Z,33.71
2016-04-28T08:16:24.428Z,37.05
2016-04-28T08:17:24.447Z,35.62
2016-04-28T08:18:24.481Z,31.9
2016-04-28T08:19:24.499Z,27.89
2016-04-28T08:20:24.501Z,27.6
2016-04-28T08:21:24.519Z,27.98
2016-04-28T08:22:24.538Z,28.27
2016-04-28T08:23:24.541Z,28.65
2016-04-28T08:24:24.575Z,27.98
2016-04-28T08:25:24.577Z,30.94
2016-04-28T08:26:24.642Z,30.85
2016-04-28T08:27:24.911Z,27.5
2016-04-28T08:28:24.742Z,24.64
2016-04-28T08:29:24.651Z,24.54
2016-04-28T08:30:24.716Z,24.35
2016-04-28T08:31:24.688Z,25.29
2016-04-28T08:32:24.705Z,27.01
2016-04-28T08:33:24.896Z,26.82
2016-04-28T08:34:24.727Z,28.25
2016-04-28T08:35:24.745Z,30.74
2016-04-28T08:36:24.763Z,30.85
2016-04-28T08:37:24.782Z,30.08
2016-04-28T08:38:24.659Z,30.37
2016-04-28T08:39:24.802Z,26.45
2016-04-28T08:40:24.836Z,25.87
2016-04-28T08:41:24.855Z,26.07
2016-04-28T08:42:24.733Z,26.44
2016-04-28T08:43:24.767Z,27.2
2016-04-28T08:44:24.895Z,26.92
2016-04-28T08:45:24.756Z,26.92
2016-04-28T08:46:24.931Z,26.14
2016-04-28T08:47:24.949Z,27.38
2016-04-28T08:48:24.998Z,26.72
2016-04-28T08:49:24.970Z,27.28
2016-04-28T08:50:24.989Z,27.28
2016-04-28T08:51:25.007Z,27.57
2016-04-28T08:52:25.025Z,26.9
2016-04-28T08:53:25.044Z,25.68
2016-04-28T08:54:25.046Z,23.94
2016-04-28T08:55:25.080Z,23.38
2016-04-28T08:56:25.083Z,23.85
2016-04-28T08:57:26.117Z,25.65
2016-04-28T08:58:26.260Z,24.41
2016-04-28T08:59:25.138Z,24.22
2016-04-28T09:00:25.140Z,24.03
2016-04-28T09:01:25.174Z,24.41
2016-04-28T09:02:25.193Z,24.22
2016-04-28T09:03:25.196Z,25.08
2016-04-28T09:04:25.214Z,25.09
2016-04-28T09:05:25.232Z,25.95
2016-04-28T09:06:25.250Z,24.99
2016-04-28T09:07:25.269Z,23.38
2016-04-28T09:08:25.271Z,23.38
2016-04-28T09:09:25.290Z,23.85
2016-04-28T09:10:25.339Z,24.24
2016-04-28T09:11:25.326Z,24.33
2016-04-28T09:12:25.954Z,22.42
2016-04-28T09:13:25.348Z,23.09
2016-04-28T09:14:25.366Z,22.99
2016-04-28T09:15:25.384Z,23.09
2016-04-28T09:16:25.402Z,23.09
2016-04-28T09:17:25.420Z,23.18
2016-04-28T09:18:25.439Z,21.47
2016-04-28T09:19:25.457Z,22.42
2016-04-28T09:20:25.475Z,22.52
2016-04-28T09:21:25.478Z,23.18
2016-04-28T09:22:25.512Z,23.28
2016-04-28T09:23:25.514Z,22.05
2016-04-28T09:24:25.533Z,21.47
2016-04-28T09:25:25.551Z,23.47
2016-04-28T09:26:25.570Z,28.44
2016-04-28T09:27:25.806Z,26.06
2016-04-28T09:28:25.606Z,23.77
2016-04-28T09:29:25.608Z,22.43
2016-04-28T09:30:25.627Z,21.86
2016-04-28T09:31:25.660Z,22.06
2016-04-28T09:32:25.694Z,22.73
2016-04-28T09:33:25.683Z,24.26
2016-04-28T09:34:25.716Z,25.12
2016-04-28T09:35:25.718Z,22.92
2016-04-28T09:36:25.737Z,22.34
2016-04-28T09:37:25.755Z,20.92
2016-04-28T09:38:25.758Z,19.96
2016-04-28T09:39:25.776Z,19.38
2016-04-28T09:40:25.810Z,23.11
2016-04-28T09:41:25.812Z,20.92
2016-04-28T09:42:26.003Z,20.45
2016-04-28T09:43:25.866Z,21.5
2016-04-28T09:44:25.868Z,25.04
2016-04-28T09:45:25.887Z,23.99
2016-04-28T09:46:25.904Z,22.37
2016-04-28T09:47:25.923Z,22.94
2016-04-28T09:48:25.925Z,22.27
2016-04-28T09:49:25.944Z,22.07
2016-04-28T09:50:25.978Z,22.17
2016-04-28T09:51:25.981Z,21.12
2016-04-28T09:52:25.998Z,22.34
2016-04-28T09:53:26.017Z,24.27
2016-04-28T09:54:26.051Z,22.36
2016-04-28T09:55:26.053Z,23.12
2016-04-28T09:56:26.072Z,20.35
2016-04-28T09:57:26.090Z,21.02
2016-04-28T09:58:26.108Z,21.69
2016-04-28T09:59:26.127Z,20.06
2016-04-28T10:00:26.161Z,19.97
2016-04-28T10:01:26.164Z,21.02
2016-04-28T10:02:26.182Z,22.54
2016-04-28T10:03:26.200Z,22.54
2016-04-28T10:04:26.203Z,23.03
2016-04-28T10:05:26.221Z,22.74
2016-04-28T10:06:26.240Z,23.21
2016-04-28T10:07:26.258Z,23.41
2016-04-28T10:08:26.277Z,21.58
2016-04-28T10:09:26.342Z,22.25
2016-04-28T10:10:26.313Z,22.63
2016-04-28T10:11:26.332Z,23.49
2016-04-28T10:12:26.350Z,23.6
2016-04-28T10:13:26.351Z,21.68
2016-04-28T10:14:26.370Z,22.74
2016-04-28T10:15:26.390Z,21.78
2016-04-28T10:16:26.423Z,22.07
2016-04-28T10:17:26.425Z,23.12
2016-04-28T10:18:26.443Z,22.55
2016-04-28T10:19:26.462Z,22.74
2016-04-28T10:20:26.480Z,24.08
2016-04-28T10:21:26.499Z,23.8
2016-04-28T10:22:26.517Z,24.48
2016-04-28T10:23:26.536Z,23.23
2016-04-28T10:24:26.553Z,24.77
2016-04-28T10:25:26.557Z,24.01
2016-04-28T10:26:26.590Z,24.1
2016-04-28T10:27:26.453Z,23.54
2016-04-28T10:28:26.611Z,18.08
2016-04-28T10:29:26.645Z,17.22
2016-04-28T10:30:26.648Z,16.55
2016-04-28T10:31:26.682Z,17.9
2016-04-28T10:32:26.685Z,17.8
2016-04-28T10:33:26.703Z,16.64
2016-04-28T10:34:26.721Z,18.37
2016-04-28T10:35:26.755Z,16.64
2016-04-28T10:36:26.758Z,17.12
2016-04-28T10:37:26.792Z,18.07
2016-04-28T10:38:26.811Z,15.69
2016-04-28T10:39:26.828Z,16.26
2016-04-28T10:40:26.831Z,18.37
2016-04-28T10:41:26.849Z,16.74
2016-04-28T10:42:26.712Z,15.11
2016-04-28T10:43:26.885Z,15.59
2016-04-28T10:44:26.920Z,16.16
2016-04-28T10:45:26.923Z,15.39
2016-04-28T10:46:26.973Z,15.87
2016-04-28T10:47:26.976Z,15.87
2016-04-28T10:48:26.993Z,17.02
2016-04-28T10:49:27.012Z,18.45
2016-04-28T10:50:27.015Z,19.69
2016-04-28T10:51:27.032Z,18.83
2016-04-28T10:52:27.051Z,17.3
2016-04-28T10:53:27.069Z,19.21
2016-04-28T10:54:27.119Z,18.74
2016-04-28T10:55:27.106Z,18.54
2016-04-28T10:56:27.125Z,20.64
2016-04-28T10:57:27.017Z,20.06
2016-04-28T10:58:27.161Z,21.41
2016-04-28T10:59:27.164Z,21.88
2016-04-28T11:00:27.197Z,20.06
2016-04-28T11:01:27.216Z,22.55
2016-04-28T11:02:27.219Z,21.12
2016-04-28T11:03:27.253Z,20.46
2016-04-28T11:04:27.271Z,20.45
2016-04-28T11:05:27.274Z,22.55
2016-04-28T11:06:27.291Z,23.03
2016-04-28T11:07:27.310Z,21.97
2016-04-28T11:08:27.344Z,21.12
2016-04-28T11:09:27.346Z,20.36
2016-04-28T11:10:27.396Z,18.07
2016-04-28T11:11:27.383Z,18.54
2016-04-28T11:12:27.996Z,19.02
2016-04-28T11:13:27.435Z,19.6
2016-04-28T11:14:27.423Z,18.06
2016-04-28T11:15:27.441Z,18.82
2016-04-28T11:16:27.459Z,19.49
2016-04-28T11:17:27.477Z,18.54
2016-04-28T11:18:27.496Z,19.2
2016-04-28T11:19:27.545Z,19.68
2016-04-28T11:20:27.532Z,20.43
2016-04-28T11:21:27.544Z,21.21
2016-04-28T11:22:27.579Z,21.78
2016-04-28T11:23:27.614Z,18.35
2016-04-28T11:24:27.600Z,19.2
2016-04-28T11:25:27.619Z,19.68
2016-04-28T11:26:27.636Z,20.16
2016-04-28T11:27:27.655Z,22.26
2016-04-28T11:28:27.673Z,18.44
2016-04-28T11:29:27.691Z,18.45
2016-04-28T11:30:27.710Z,16.35
2016-04-28T11:31:27.712Z,17.11
2016-04-28T11:32:27.747Z,15.48
2016-04-28T11:33:27.750Z,16.43
2016-04-28T11:34:27.783Z,16.05
2016-04-28T11:35:27.785Z,15.77
2016-04-28T11:36:27.819Z,17.68
2016-04-28T11:37:27.821Z,17
2016-04-28T11:38:27.840Z,19.97
2016-04-28T11:39:27.859Z,21.59
2016-04-28T11:40:27.877Z,20.06
2016-04-28T11:41:27.896Z,21.22
2016-04-28T11:42:27.773Z,18.45
2016-04-28T11:43:27.917Z,18.35
2016-04-28T11:44:27.951Z,17.78
2016-04-28T11:45:27.954Z,19.6
2016-04-28T11:46:28.003Z,22.18
2016-04-28T11:47:27.990Z,22.94
2016-04-28T11:48:28.009Z,19.6
2016-04-28T11:49:28.026Z,19.6
2016-04-28T11:50:28.061Z,18.55
2016-04-28T11:51:28.079Z,17.88
2016-04-28T11:52:28.082Z,17.41
2016-04-28T11:53:28.100Z,19.89
2016-04-28T11:54:28.117Z,20.76
2016-04-28T11:55:28.136Z,18.66
2016-04-28T11:56:28.155Z,15.5
2016-04-28T11:57:28.580Z,17.8
2016-04-28T11:58:29.629Z,15.69
2016-04-28T11:59:28.210Z,14.73
2016-04-28T12:00:28.244Z,15.41
2016-04-28T12:01:28.247Z,16.27
2016-04-28T12:02:28.249Z,15.79
2016-04-28T12:03:28.283Z,15.88
2016-04-28T12:04:28.301Z,16.74
2016-04-28T12:05:28.319Z,15.22
2016-04-28T12:06:28.322Z,14.83
2016-04-28T12:07:28.372Z,14.73
2016-04-28T12:08:28.390Z,14.54
2016-04-28T12:09:28.377Z,14.34
2016-04-28T12:10:28.410Z,15.11
2016-04-28T12:11:28.429Z,16.74
2016-04-28T12:12:28.291Z,16.83
2016-04-28T12:13:28.466Z,18.74
2016-04-28T12:14:28.484Z,15.4
2016-04-28T12:15:28.534Z,14.92
2016-04-28T12:16:28.537Z,17.6
2016-04-28T12:17:28.524Z,20.75
2016-04-28T12:18:28.542Z,21.52
2016-04-28T12:19:28.560Z,18.56
2016-04-28T12:20:28.579Z,17.22
2016-04-28T12:21:28.598Z,14.74
2016-04-28T12:22:28.631Z,15.61
2016-04-28T12:23:28.634Z,18
2016-04-28T12:24:28.652Z,17.71
2016-04-28T12:25:28.670Z,17.43
2016-04-28T12:26:28.703Z,18.49
2016-04-28T12:27:30.785Z,18.01
2016-04-28T12:28:28.991Z,16
2016-04-28T12:29:28.744Z,15.43
2016-04-28T12:30:28.778Z,14.28
2016-04-28T12:31:28.796Z,13.23
2016-04-28T12:32:28.799Z,13.8
2016-04-28T12:33:28.833Z,13.23
2016-04-28T12:34:28.836Z,14.28
2016-04-28T12:35:28.852Z,13.51
2016-04-28T12:36:28.887Z,13.51
2016-04-28T12:37:28.905Z,13.89
2016-04-28T12:38:28.908Z,12.84
2016-04-28T12:39:28.943Z,15.04
2016-04-28T12:40:28.946Z,16.86
2016-04-28T12:41:28.963Z,17.06
2016-04-28T12:42:30.997Z,14.28
2016-04-28T12:43:29.016Z,14.37
2016-04-28T12:44:29.035Z,15.82
2016-04-28T12:45:29.176Z,17.45
2016-04-28T12:46:29.070Z,21.77
2016-04-28T12:47:29.089Z,17.55
2016-04-28T12:48:29.185Z,14.67
2016-04-28T12:49:29.140Z,15.05
2016-04-28T12:50:29.159Z,13.04
2016-04-28T12:51:29.178Z,13.13
2016-04-28T12:52:29.196Z,13.23
2016-04-28T12:53:29.214Z,13.8
2016-04-28T12:54:29.233Z,11.98
2016-04-28T12:55:29.251Z,11.4